sensor_id;sensor_type;location;lat;lon;timestamp;P1;durP1;ratioP1;P2;durP2;ratioP2
33162;SDS011;29282;45.656;11.302;2023-05-14T00:00:46;6.95;;;2.22;;
33162;SDS011;29282;45.656;11.302;2023-05-14T00:03:12;5.10;;;2.40;;
33162;SDS011;29282;45.656;11.302;2023-05-14T00:05:37;9.65;;;3.15;;
33162;SDS011;29282;45.656;11.302;2023-05-14T00:08:03;6.80;;;2.45;;
33162;SDS011;29282;45.656;11.302;2023-05-14T00:10:29;5.18;;;2.45;;
33162;SDS011;29282;45.656;11.302;2023-05-14T00:12:54;3.67;;;2.33;;
33162;SDS011;29282;45.656;11.302;2023-05-14T00:15:20;3.88;;;2.47;;
33162;SDS011;29282;45.656;11.302;2023-05-14T00:17:46;7.00;;;2.55;;
33162;SDS011;29282;45.656;11.302;2023-05-14T00:20:12;3.25;;;2.22;;
33162;SDS011;29282;45.656;11.302;2023-05-14T00:22:37;9.50;;;2.55;;
33162;SDS011;29282;45.656;11.302;2023-05-14T00:25:04;5.57;;;2.30;;
33162;SDS011;29282;45.656;11.302;2023-05-14T00:27:31;3.50;;;2.35;;
33162;SDS011;29282;45.656;11.302;2023-05-14T00:29:56;5.13;;;2.08;;
33162;SDS011;29282;45.656;11.302;2023-05-14T00:32:22;6.55;;;2.17;;
33162;SDS011;29282;45.656;11.302;2023-05-14T00:34:48;5.03;;;2.28;;
33162;SDS011;29282;45.656;11.302;2023-05-14T00:37:13;4.18;;;2.50;;
33162;SDS011;29282;45.656;11.302;2023-05-14T00:39:39;4.97;;;2.50;;
33162;SDS011;29282;45.656;11.302;2023-05-14T00:42:04;3.17;;;2.08;;
33162;SDS011;29282;45.656;11.302;2023-05-14T00:44:30;3.30;;;1.90;;
33162;SDS011;29282;45.656;11.302;2023-05-14T00:46:57;3.20;;;2.10;;
33162;SDS011;29282;45.656;11.302;2023-05-14T00:49:23;4.93;;;1.90;;
33162;SDS011;29282;45.656;11.302;2023-05-14T00:51:49;3.25;;;1.98;;
33162;SDS011;29282;45.656;11.302;2023-05-14T00:54:15;6.18;;;2.15;;
33162;SDS011;29282;45.656;11.302;2023-05-14T00:56:44;3.28;;;2.30;;
33162;SDS011;29282;45.656;11.302;2023-05-14T00:59:10;4.47;;;2.10;;
33162;SDS011;29282;45.656;11.302;2023-05-14T01:01:36;3.65;;;2.17;;
33162;SDS011;29282;45.656;11.302;2023-05-14T01:04:02;6.18;;;2.00;;
33162;SDS011;29282;45.656;11.302;2023-05-14T01:12:06;4.90;;;2.20;;
33162;SDS011;29282;45.656;11.302;2023-05-14T01:17:00;5.43;;;2.08;;
33162;SDS011;29282;45.656;11.302;2023-05-14T01:19:36;4.45;;;1.90;;
33162;SDS011;29282;45.656;11.302;2023-05-14T01:22:05;3.97;;;1.98;;
33162;SDS011;29282;45.656;11.302;2023-05-14T01:24:31;3.85;;;2.30;;
33162;SDS011;29282;45.656;11.302;2023-05-14T01:27:08;3.58;;;1.92;;
33162;SDS011;29282;45.656;11.302;2023-05-14T01:29:44;3.42;;;2.00;;
33162;SDS011;29282;45.656;11.302;2023-05-14T01:32:23;3.90;;;1.70;;
33162;SDS011;29282;45.656;11.302;2023-05-14T01:34:50;2.75;;;1.80;;
33162;SDS011;29282;45.656;11.302;2023-05-14T01:37:17;3.25;;;2.00;;
33162;SDS011;29282;45.656;11.302;2023-05-14T01:39:43;3.88;;;2.08;;
33162;SDS011;29282;45.656;11.302;2023-05-14T01:42:09;3.90;;;2.00;;
33162;SDS011;29282;45.656;11.302;2023-05-14T01:44:35;4.63;;;2.17;;
33162;SDS011;29282;45.656;11.302;2023-05-14T01:47:01;4.20;;;1.80;;
33162;SDS011;29282;45.656;11.302;2023-05-14T01:49:26;2.65;;;1.45;;
33162;SDS011;29282;45.656;11.302;2023-05-14T01:51:51;2.42;;;1.60;;
33162;SDS011;29282;45.656;11.302;2023-05-14T01:54:17;3.33;;;2.17;;
33162;SDS011;29282;45.656;11.302;2023-05-14T01:56:42;2.50;;;1.70;;
33162;SDS011;29282;45.656;11.302;2023-05-14T01:59:08;4.22;;;1.90;;
33162;SDS011;29282;45.656;11.302;2023-05-14T02:01:34;2.58;;;1.80;;
33162;SDS011;29282;45.656;11.302;2023-05-14T02:03:59;3.28;;;1.73;;
33162;SDS011;29282;45.656;11.302;2023-05-14T02:06:25;4.53;;;1.98;;
33162;SDS011;29282;45.656;11.302;2023-05-14T02:08:51;3.50;;;1.52;;
33162;SDS011;29282;45.656;11.302;2023-05-14T02:11:16;4.22;;;1.73;;
33162;SDS011;29282;45.656;11.302;2023-05-14T02:13:42;2.60;;;1.70;;
33162;SDS011;29282;45.656;11.302;2023-05-14T02:16:07;3.17;;;1.90;;
33162;SDS011;29282;45.656;11.302;2023-05-14T02:18:36;3.60;;;1.77;;
33162;SDS011;29282;45.656;11.302;2023-05-14T02:21:01;5.10;;;2.20;;
33162;SDS011;29282;45.656;11.302;2023-05-14T02:23:30;2.33;;;1.60;;
33162;SDS011;29282;45.656;11.302;2023-05-14T02:25:55;3.45;;;1.80;;
33162;SDS011;29282;45.656;11.302;2023-05-14T02:28:21;2.20;;;1.50;;
33162;SDS011;29282;45.656;11.302;2023-05-14T02:30:46;2.45;;;1.60;;
33162;SDS011;29282;45.656;11.302;2023-05-14T02:33:12;2.95;;;1.77;;
33162;SDS011;29282;45.656;11.302;2023-05-14T02:35:37;4.85;;;1.80;;
33162;SDS011;29282;45.656;11.302;2023-05-14T02:38:03;8.00;;;2.00;;
33162;SDS011;29282;45.656;11.302;2023-05-14T02:40:28;5.60;;;1.77;;
33162;SDS011;29282;45.656;11.302;2023-05-14T02:42:54;2.97;;;1.80;;
33162;SDS011;29282;45.656;11.302;2023-05-14T02:45:19;2.53;;;1.83;;
33162;SDS011;29282;45.656;11.302;2023-05-14T02:47:45;3.15;;;1.70;;
33162;SDS011;29282;45.656;11.302;2023-05-14T02:50:11;2.75;;;2.08;;
33162;SDS011;29282;45.656;11.302;2023-05-14T02:52:36;3.05;;;1.70;;
33162;SDS011;29282;45.656;11.302;2023-05-14T02:55:02;4.10;;;1.90;;
33162;SDS011;29282;45.656;11.302;2023-05-14T02:57:27;2.13;;;1.60;;
33162;SDS011;29282;45.656;11.302;2023-05-14T02:59:53;2.08;;;1.65;;
33162;SDS011;29282;45.656;11.302;2023-05-14T03:02:18;2.33;;;1.80;;
33162;SDS011;29282;45.656;11.302;2023-05-14T03:04:44;2.03;;;1.60;;
33162;SDS011;29282;45.656;11.302;2023-05-14T03:07:10;3.30;;;1.83;;
33162;SDS011;29282;45.656;11.302;2023-05-14T03:09:36;2.92;;;1.80;;
33162;SDS011;29282;45.656;11.302;2023-05-14T03:12:01;3.42;;;1.42;;
33162;SDS011;29282;45.656;11.302;2023-05-14T03:14:27;3.15;;;1.67;;
33162;SDS011;29282;45.656;11.302;2023-05-14T03:16:52;2.47;;;1.60;;
33162;SDS011;29282;45.656;11.302;2023-05-14T03:19:18;2.78;;;1.80;;
33162;SDS011;29282;45.656;11.302;2023-05-14T03:21:43;3.63;;;1.50;;
33162;SDS011;29282;45.656;11.302;2023-05-14T03:24:09;1.98;;;1.52;;
33162;SDS011;29282;45.656;11.302;2023-05-14T03:26:35;2.00;;;1.45;;
33162;SDS011;29282;45.656;11.302;2023-05-14T03:29:03;2.22;;;1.30;;
33162;SDS011;29282;45.656;11.302;2023-05-14T03:31:29;2.85;;;1.65;;
33162;SDS011;29282;45.656;11.302;2023-05-14T03:33:55;2.08;;;1.50;;
33162;SDS011;29282;45.656;11.302;2023-05-14T03:36:21;3.35;;;1.63;;
33162;SDS011;29282;45.656;11.302;2023-05-14T03:38:46;2.13;;;1.70;;
33162;SDS011;29282;45.656;11.302;2023-05-14T03:41:12;2.13;;;1.48;;
33162;SDS011;29282;45.656;11.302;2023-05-14T03:43:37;2.67;;;1.40;;
33162;SDS011;29282;45.656;11.302;2023-05-14T03:46:03;2.65;;;1.35;;
33162;SDS011;29282;45.656;11.302;2023-05-14T03:48:28;3.08;;;1.80;;
33162;SDS011;29282;45.656;11.302;2023-05-14T03:50:54;2.80;;;1.42;;
33162;SDS011;29282;45.656;11.302;2023-05-14T03:53:19;2.55;;;1.45;;
33162;SDS011;29282;45.656;11.302;2023-05-14T03:55:45;3.42;;;1.50;;
33162;SDS011;29282;45.656;11.302;2023-05-14T03:58:10;1.75;;;1.42;;
33162;SDS011;29282;45.656;11.302;2023-05-14T04:00:38;3.50;;;1.70;;
33162;SDS011;29282;45.656;11.302;2023-05-14T04:03:07;2.45;;;1.30;;
33162;SDS011;29282;45.656;11.302;2023-05-14T04:05:32;1.95;;;1.58;;
33162;SDS011;29282;45.656;11.302;2023-05-14T04:07:59;1.90;;;1.50;;
33162;SDS011;29282;45.656;11.302;2023-05-14T04:10:25;1.55;;;1.30;;
33162;SDS011;29282;45.656;11.302;2023-05-14T04:12:50;1.67;;;1.25;;
33162;SDS011;29282;45.656;11.302;2023-05-14T04:15:16;3.72;;;1.38;;
33162;SDS011;29282;45.656;11.302;2023-05-14T04:17:41;3.33;;;1.50;;
33162;SDS011;29282;45.656;11.302;2023-05-14T04:20:07;2.78;;;1.42;;
33162;SDS011;29282;45.656;11.302;2023-05-14T04:22:33;3.25;;;1.60;;
33162;SDS011;29282;45.656;11.302;2023-05-14T04:24:58;2.00;;;1.50;;
33162;SDS011;29282;45.656;11.302;2023-05-14T04:27:24;2.75;;;1.63;;
33162;SDS011;29282;45.656;11.302;2023-05-14T04:29:50;2.40;;;1.48;;
33162;SDS011;29282;45.656;11.302;2023-05-14T04:32:15;3.50;;;1.80;;
33162;SDS011;29282;45.656;11.302;2023-05-14T04:34:42;1.83;;;1.30;;
33162;SDS011;29282;45.656;11.302;2023-05-14T04:37:07;4.40;;;1.42;;
33162;SDS011;29282;45.656;11.302;2023-05-14T04:39:34;2.15;;;1.30;;
33162;SDS011;29282;45.656;11.302;2023-05-14T04:41:59;2.22;;;1.50;;
33162;SDS011;29282;45.656;11.302;2023-05-14T04:44:25;2.85;;;1.60;;
33162;SDS011;29282;45.656;11.302;2023-05-14T04:46:50;1.98;;;1.40;;
33162;SDS011;29282;45.656;11.302;2023-05-14T04:49:17;1.67;;;1.40;;
33162;SDS011;29282;45.656;11.302;2023-05-14T04:51:42;2.15;;;1.48;;
33162;SDS011;29282;45.656;11.302;2023-05-14T04:54:08;3.67;;;1.80;;
33162;SDS011;29282;45.656;11.302;2023-05-14T04:56:34;1.45;;;1.20;;
33162;SDS011;29282;45.656;11.302;2023-05-14T04:58:59;1.70;;;1.38;;
33162;SDS011;29282;45.656;11.302;2023-05-14T05:01:25;1.92;;;1.50;;
33162;SDS011;29282;45.656;11.302;2023-05-14T05:03:50;1.92;;;1.23;;
33162;SDS011;29282;45.656;11.302;2023-05-14T05:06:16;1.88;;;1.45;;
33162;SDS011;29282;45.656;11.302;2023-05-14T05:08:42;1.90;;;1.20;;
33162;SDS011;29282;45.656;11.302;2023-05-14T05:11:07;1.35;;;1.25;;
33162;SDS011;29282;45.656;11.302;2023-05-14T05:13:32;2.13;;;1.30;;
33162;SDS011;29282;45.656;11.302;2023-05-14T05:15:58;1.40;;;1.20;;
33162;SDS011;29282;45.656;11.302;2023-05-14T05:18:24;1.95;;;1.50;;
33162;SDS011;29282;45.656;11.302;2023-05-14T05:20:49;1.23;;;1.10;;
33162;SDS011;29282;45.656;11.302;2023-05-14T05:23:15;1.67;;;1.42;;
33162;SDS011;29282;45.656;11.302;2023-05-14T05:25:41;1.85;;;1.30;;
33162;SDS011;29282;45.656;11.302;2023-05-14T05:28:06;2.53;;;1.10;;
33162;SDS011;29282;45.656;11.302;2023-05-14T05:30:32;1.83;;;1.50;;
33162;SDS011;29282;45.656;11.302;2023-05-14T05:32:57;2.22;;;1.27;;
33162;SDS011;29282;45.656;11.302;2023-05-14T05:35:23;1.60;;;1.27;;
33162;SDS011;29282;45.656;11.302;2023-05-14T05:37:48;1.35;;;1.13;;
33162;SDS011;29282;45.656;11.302;2023-05-14T05:40:17;2.08;;;1.35;;
33162;SDS011;29282;45.656;11.302;2023-05-14T05:42:43;1.85;;;1.38;;
33162;SDS011;29282;45.656;11.302;2023-05-14T05:45:08;1.73;;;1.30;;
33162;SDS011;29282;45.656;11.302;2023-05-14T05:47:34;1.92;;;1.20;;
33162;SDS011;29282;45.656;11.302;2023-05-14T05:50:00;1.45;;;1.33;;
33162;SDS011;29282;45.656;11.302;2023-05-14T05:52:25;1.83;;;1.15;;
33162;SDS011;29282;45.656;11.302;2023-05-14T05:54:51;1.40;;;1.30;;
33162;SDS011;29282;45.656;11.302;2023-05-14T05:57:16;1.73;;;1.40;;
33162;SDS011;29282;45.656;11.302;2023-05-14T05:59:42;1.67;;;1.50;;
33162;SDS011;29282;45.656;11.302;2023-05-14T06:02:07;2.05;;;1.30;;
33162;SDS011;29282;45.656;11.302;2023-05-14T06:04:33;1.48;;;1.08;;
33162;SDS011;29282;45.656;11.302;2023-05-14T06:06:58;1.25;;;1.10;;
33162;SDS011;29282;45.656;11.302;2023-05-14T06:09:24;1.20;;;1.10;;
33162;SDS011;29282;45.656;11.302;2023-05-14T06:11:49;3.03;;;1.65;;
33162;SDS011;29282;45.656;11.302;2023-05-14T06:14:15;3.05;;;1.20;;
33162;SDS011;29282;45.656;11.302;2023-05-14T06:16:40;2.17;;;1.38;;
33162;SDS011;29282;45.656;11.302;2023-05-14T06:19:06;2.42;;;1.30;;
33162;SDS011;29282;45.656;11.302;2023-05-14T06:21:32;2.30;;;1.35;;
33162;SDS011;29282;45.656;11.302;2023-05-14T06:23:58;1.85;;;1.55;;
33162;SDS011;29282;45.656;11.302;2023-05-14T06:26:23;2.08;;;1.40;;
33162;SDS011;29282;45.656;11.302;2023-05-14T06:28:49;2.45;;;1.20;;
33162;SDS011;29282;45.656;11.302;2023-05-14T06:31:15;3.78;;;1.58;;
33162;SDS011;29282;45.656;11.302;2023-05-14T06:33:43;2.58;;;1.33;;
33162;SDS011;29282;45.656;11.302;2023-05-14T06:36:09;2.25;;;1.42;;
33162;SDS011;29282;45.656;11.302;2023-05-14T06:38:34;2.17;;;1.40;;
33162;SDS011;29282;45.656;11.302;2023-05-14T06:41:00;2.55;;;1.38;;
33162;SDS011;29282;45.656;11.302;2023-05-14T06:43:26;3.35;;;1.55;;
33162;SDS011;29282;45.656;11.302;2023-05-14T06:45:51;1.98;;;1.55;;
33162;SDS011;29282;45.656;11.302;2023-05-14T06:48:17;1.65;;;1.40;;
33162;SDS011;29282;45.656;11.302;2023-05-14T06:50:44;2.90;;;1.42;;
33162;SDS011;29282;45.656;11.302;2023-05-14T06:53:15;1.55;;;1.45;;
33162;SDS011;29282;45.656;11.302;2023-05-14T06:55:40;2.45;;;1.50;;
33162;SDS011;29282;45.656;11.302;2023-05-14T06:58:06;2.40;;;1.40;;
33162;SDS011;29282;45.656;11.302;2023-05-14T07:00:32;2.20;;;1.50;;
33162;SDS011;29282;45.656;11.302;2023-05-14T07:02:58;1.67;;;1.33;;
33162;SDS011;29282;45.656;11.302;2023-05-14T07:05:23;2.58;;;1.50;;
33162;SDS011;29282;45.656;11.302;2023-05-14T07:07:49;2.88;;;1.45;;
33162;SDS011;29282;45.656;11.302;2023-05-14T07:10:15;2.80;;;1.60;;
33162;SDS011;29282;45.656;11.302;2023-05-14T07:12:43;3.53;;;1.52;;
33162;SDS011;29282;45.656;11.302;2023-05-14T07:15:09;3.83;;;1.75;;
33162;SDS011;29282;45.656;11.302;2023-05-14T07:17:36;2.38;;;1.50;;
33162;SDS011;29282;45.656;11.302;2023-05-14T07:20:01;2.55;;;1.45;;
33162;SDS011;29282;45.656;11.302;2023-05-14T07:22:27;5.07;;;2.00;;
33162;SDS011;29282;45.656;11.302;2023-05-14T07:24:53;3.30;;;1.65;;
33162;SDS011;29282;45.656;11.302;2023-05-14T07:27:22;3.70;;;1.70;;
33162;SDS011;29282;45.656;11.302;2023-05-14T07:29:48;4.57;;;1.70;;
33162;SDS011;29282;45.656;11.302;2023-05-14T07:32:14;6.15;;;2.33;;
33162;SDS011;29282;45.656;11.302;2023-05-14T07:34:39;4.97;;;1.98;;
33162;SDS011;29282;45.656;11.302;2023-05-14T07:37:05;4.20;;;1.77;;
33162;SDS011;29282;45.656;11.302;2023-05-14T07:39:31;8.10;;;2.28;;
33162;SDS011;29282;45.656;11.302;2023-05-14T07:41:56;3.20;;;1.55;;
33162;SDS011;29282;45.656;11.302;2023-05-14T07:44:22;4.03;;;1.42;;
33162;SDS011;29282;45.656;11.302;2023-05-14T07:46:47;5.40;;;2.30;;
33162;SDS011;29282;45.656;11.302;2023-05-14T07:49:13;5.63;;;1.67;;
33162;SDS011;29282;45.656;11.302;2023-05-14T07:51:38;5.93;;;2.20;;
33162;SDS011;29282;45.656;11.302;2023-05-14T07:54:04;3.42;;;1.52;;
33162;SDS011;29282;45.656;11.302;2023-05-14T07:56:29;4.38;;;1.85;;
33162;SDS011;29282;45.656;11.302;2023-05-14T07:58:55;5.53;;;1.55;;
33162;SDS011;29282;45.656;11.302;2023-05-14T08:01:21;5.72;;;1.90;;
33162;SDS011;29282;45.656;11.302;2023-05-14T08:03:46;5.82;;;1.80;;
33162;SDS011;29282;45.656;11.302;2023-05-14T08:06:12;5.55;;;2.08;;
33162;SDS011;29282;45.656;11.302;2023-05-14T08:08:38;6.30;;;2.15;;
33162;SDS011;29282;45.656;11.302;2023-05-14T08:11:03;6.88;;;2.00;;
33162;SDS011;29282;45.656;11.302;2023-05-14T08:13:29;6.50;;;2.03;;
33162;SDS011;29282;45.656;11.302;2023-05-14T08:15:55;5.93;;;1.65;;
33162;SDS011;29282;45.656;11.302;2023-05-14T08:18:20;5.60;;;1.80;;
33162;SDS011;29282;45.656;11.302;2023-05-14T08:20:46;5.60;;;1.92;;
33162;SDS011;29282;45.656;11.302;2023-05-14T08:23:12;3.00;;;1.70;;
33162;SDS011;29282;45.656;11.302;2023-05-14T08:25:38;3.45;;;1.75;;
33162;SDS011;29282;45.656;11.302;2023-05-14T08:28:03;3.25;;;1.67;;
33162;SDS011;29282;45.656;11.302;2023-05-14T08:30:29;6.80;;;1.90;;
33162;SDS011;29282;45.656;11.302;2023-05-14T08:32:55;5.55;;;1.98;;
33162;SDS011;29282;45.656;11.302;2023-05-14T08:35:20;8.15;;;1.80;;
33162;SDS011;29282;45.656;11.302;2023-05-14T08:37:46;9.93;;;2.17;;
33162;SDS011;29282;45.656;11.302;2023-05-14T08:40:11;5.53;;;2.30;;
33162;SDS011;29282;45.656;11.302;2023-05-14T08:42:37;4.85;;;2.00;;
33162;SDS011;29282;45.656;11.302;2023-05-14T08:45:18;14.30;;;2.90;;
33162;SDS011;29282;45.656;11.302;2023-05-14T08:47:46;8.32;;;2.45;;
33162;SDS011;29282;45.656;11.302;2023-05-14T08:50:14;8.35;;;2.30;;
33162;SDS011;29282;45.656;11.302;2023-05-14T08:52:40;7.03;;;2.47;;
33162;SDS011;29282;45.656;11.302;2023-05-14T08:55:06;7.35;;;2.50;;
33162;SDS011;29282;45.656;11.302;2023-05-14T08:57:32;11.32;;;3.00;;
33162;SDS011;29282;45.656;11.302;2023-05-14T08:59:59;7.53;;;2.30;;
33162;SDS011;29282;45.656;11.302;2023-05-14T09:02:28;9.18;;;2.42;;
33162;SDS011;29282;45.656;11.302;2023-05-14T09:04:58;9.85;;;2.33;;
33162;SDS011;29282;45.656;11.302;2023-05-14T09:07:25;11.68;;;2.50;;
33162;SDS011;29282;45.656;11.302;2023-05-14T09:09:51;6.47;;;2.50;;
33162;SDS011;29282;45.656;11.302;2023-05-14T09:12:17;11.95;;;3.00;;
33162;SDS011;29282;45.656;11.302;2023-05-14T09:14:43;8.35;;;2.42;;
33162;SDS011;29282;45.656;11.302;2023-05-14T09:17:09;11.63;;;2.83;;
33162;SDS011;29282;45.656;11.302;2023-05-14T09:19:38;6.57;;;2.78;;
33162;SDS011;29282;45.656;11.302;2023-05-14T09:22:10;10.10;;;2.78;;
33162;SDS011;29282;45.656;11.302;2023-05-14T09:24:36;9.05;;;2.40;;
33162;SDS011;29282;45.656;11.302;2023-05-14T09:27:06;10.82;;;2.97;;
33162;SDS011;29282;45.656;11.302;2023-05-14T09:29:35;11.73;;;3.28;;
33162;SDS011;29282;45.656;11.302;2023-05-14T09:32:01;13.75;;;2.97;;
33162;SDS011;29282;45.656;11.302;2023-05-14T09:34:33;9.18;;;2.53;;
33162;SDS011;29282;45.656;11.302;2023-05-14T09:37:02;13.15;;;2.97;;
33162;SDS011;29282;45.656;11.302;2023-05-14T09:39:30;8.30;;;2.55;;
33162;SDS011;29282;45.656;11.302;2023-05-14T09:41:56;8.23;;;3.00;;
33162;SDS011;29282;45.656;11.302;2023-05-14T09:44:22;11.60;;;2.90;;
33162;SDS011;29282;45.656;11.302;2023-05-14T09:46:49;12.35;;;3.00;;
33162;SDS011;29282;45.656;11.302;2023-05-14T09:49:15;10.13;;;2.90;;
33162;SDS011;29282;45.656;11.302;2023-05-14T09:51:41;11.98;;;2.90;;
33162;SDS011;29282;45.656;11.302;2023-05-14T09:54:07;20.40;;;3.65;;
33162;SDS011;29282;45.656;11.302;2023-05-14T09:56:33;13.88;;;3.38;;
33162;SDS011;29282;45.656;11.302;2023-05-14T09:59:00;9.45;;;3.00;;
33162;SDS011;29282;45.656;11.302;2023-05-14T10:01:27;10.02;;;2.83;;
33162;SDS011;29282;45.656;11.302;2023-05-14T10:03:54;10.73;;;2.92;;
33162;SDS011;29282;45.656;11.302;2023-05-14T10:06:21;13.43;;;3.42;;
33162;SDS011;29282;45.656;11.302;2023-05-14T10:08:51;9.43;;;2.72;;
33162;SDS011;29282;45.656;11.302;2023-05-14T10:11:21;9.35;;;2.72;;
33162;SDS011;29282;45.656;11.302;2023-05-14T10:16:32;9.18;;;2.65;;
33162;SDS011;29282;45.656;11.302;2023-05-14T10:19:22;11.85;;;3.20;;
33162;SDS011;29282;45.656;11.302;2023-05-14T10:21:48;11.02;;;2.75;;
33162;SDS011;29282;45.656;11.302;2023-05-14T10:24:20;15.32;;;2.90;;
33162;SDS011;29282;45.656;11.302;2023-05-14T10:26:46;11.05;;;3.03;;
33162;SDS011;29282;45.656;11.302;2023-05-14T10:29:13;11.02;;;2.55;;
33162;SDS011;29282;45.656;11.302;2023-05-14T10:37:11;10.35;;;3.08;;
33162;SDS011;29282;45.656;11.302;2023-05-14T10:44:54;9.45;;;3.00;;
33162;SDS011;29282;45.656;11.302;2023-05-14T10:47:25;5.28;;;2.42;;
33162;SDS011;29282;45.656;11.302;2023-05-14T10:49:53;9.15;;;2.95;;
33162;SDS011;29282;45.656;11.302;2023-05-14T10:52:22;8.85;;;2.38;;
33162;SDS011;29282;45.656;11.302;2023-05-14T10:54:49;8.70;;;2.72;;
33162;SDS011;29282;45.656;11.302;2023-05-14T10:57:19;7.18;;;2.45;;
33162;SDS011;29282;45.656;11.302;2023-05-14T10:59:50;14.35;;;3.08;;
33162;SDS011;29282;45.656;11.302;2023-05-14T11:02:21;13.88;;;3.15;;
33162;SDS011;29282;45.656;11.302;2023-05-14T11:04:51;13.38;;;2.50;;
33162;SDS011;29282;45.656;11.302;2023-05-14T11:07:21;10.65;;;2.72;;
33162;SDS011;29282;45.656;11.302;2023-05-14T11:09:49;11.95;;;2.85;;
33162;SDS011;29282;45.656;11.302;2023-05-14T11:12:18;15.38;;;3.42;;
33162;SDS011;29282;45.656;11.302;2023-05-14T11:14:44;9.40;;;3.22;;
33162;SDS011;29282;45.656;11.302;2023-05-14T11:17:11;9.30;;;2.80;;
33162;SDS011;29282;45.656;11.302;2023-05-14T11:19:41;11.18;;;2.97;;
33162;SDS011;29282;45.656;11.302;2023-05-14T11:22:08;16.17;;;2.67;;
33162;SDS011;29282;45.656;11.302;2023-05-14T11:24:34;7.75;;;2.72;;
33162;SDS011;29282;45.656;11.302;2023-05-14T11:26:59;9.38;;;2.95;;
33162;SDS011;29282;45.656;11.302;2023-05-14T11:29:25;6.60;;;2.65;;
33162;SDS011;29282;45.656;11.302;2023-05-14T11:31:50;7.95;;;2.60;;
33162;SDS011;29282;45.656;11.302;2023-05-14T11:34:16;7.88;;;2.45;;
33162;SDS011;29282;45.656;11.302;2023-05-14T11:36:41;10.07;;;2.47;;
33162;SDS011;29282;45.656;11.302;2023-05-14T11:39:07;8.13;;;2.70;;
33162;SDS011;29282;45.656;11.302;2023-05-14T11:41:33;5.97;;;2.58;;
33162;SDS011;29282;45.656;11.302;2023-05-14T11:43:58;9.35;;;2.80;;
33162;SDS011;29282;45.656;11.302;2023-05-14T11:46:24;13.23;;;2.55;;
33162;SDS011;29282;45.656;11.302;2023-05-14T11:48:50;16.85;;;3.08;;
33162;SDS011;29282;45.656;11.302;2023-05-14T11:51:15;16.02;;;2.97;;
33162;SDS011;29282;45.656;11.302;2023-05-14T11:53:41;10.55;;;3.28;;
33162;SDS011;29282;45.656;11.302;2023-05-14T11:56:06;11.98;;;2.78;;
33162;SDS011;29282;45.656;11.302;2023-05-14T11:58:32;9.93;;;2.45;;
33162;SDS011;29282;45.656;11.302;2023-05-14T12:00:58;7.53;;;2.45;;
33162;SDS011;29282;45.656;11.302;2023-05-14T12:03:23;10.82;;;2.72;;
33162;SDS011;29282;45.656;11.302;2023-05-14T12:06:08;11.55;;;2.70;;
33162;SDS011;29282;45.656;11.302;2023-05-14T12:08:34;9.48;;;2.78;;
33162;SDS011;29282;45.656;11.302;2023-05-14T12:11:01;9.07;;;2.58;;
33162;SDS011;29282;45.656;11.302;2023-05-14T12:13:31;10.98;;;2.55;;
33162;SDS011;29282;45.656;11.302;2023-05-14T12:15:58;15.88;;;2.72;;
33162;SDS011;29282;45.656;11.302;2023-05-14T12:18:25;9.50;;;2.67;;
33162;SDS011;29282;45.656;11.302;2023-05-14T12:20:52;9.63;;;2.28;;
33162;SDS011;29282;45.656;11.302;2023-05-14T12:23:30;7.15;;;2.40;;
33162;SDS011;29282;45.656;11.302;2023-05-14T12:26:00;7.72;;;2.70;;
33162;SDS011;29282;45.656;11.302;2023-05-14T12:28:27;8.82;;;2.28;;
33162;SDS011;29282;45.656;11.302;2023-05-14T12:30:56;11.10;;;2.72;;
33162;SDS011;29282;45.656;11.302;2023-05-14T12:33:22;5.63;;;2.00;;
33162;SDS011;29282;45.656;11.302;2023-05-14T12:35:54;9.80;;;2.53;;
33162;SDS011;29282;45.656;11.302;2023-05-14T12:38:25;11.02;;;2.92;;
33162;SDS011;29282;45.656;11.302;2023-05-14T12:40:52;8.48;;;2.53;;
33162;SDS011;29282;45.656;11.302;2023-05-14T12:43:17;6.90;;;2.75;;
33162;SDS011;29282;45.656;11.302;2023-05-14T12:45:44;7.75;;;2.85;;
33162;SDS011;29282;45.656;11.302;2023-05-14T12:48:10;4.35;;;2.28;;
33162;SDS011;29282;45.656;11.302;2023-05-14T12:50:37;10.20;;;2.22;;
33162;SDS011;29282;45.656;11.302;2023-05-14T12:53:02;6.63;;;2.35;;
33162;SDS011;29282;45.656;11.302;2023-05-14T12:55:28;11.25;;;2.38;;
33162;SDS011;29282;45.656;11.302;2023-05-14T12:57:54;8.05;;;3.03;;
33162;SDS011;29282;45.656;11.302;2023-05-14T13:00:19;8.57;;;2.08;;
33162;SDS011;29282;45.656;11.302;2023-05-14T13:02:45;7.68;;;2.70;;
33162;SDS011;29282;45.656;11.302;2023-05-14T13:05:11;14.85;;;2.70;;
33162;SDS011;29282;45.656;11.302;2023-05-14T13:07:37;4.93;;;2.08;;
33162;SDS011;29282;45.656;11.302;2023-05-14T13:10:03;9.30;;;2.63;;
33162;SDS011;29282;45.656;11.302;2023-05-14T13:12:32;6.22;;;2.17;;
33162;SDS011;29282;45.656;11.302;2023-05-14T13:14:57;6.63;;;1.95;;
33162;SDS011;29282;45.656;11.302;2023-05-14T13:17:23;5.03;;;1.95;;
33162;SDS011;29282;45.656;11.302;2023-05-14T13:19:48;11.25;;;2.58;;
33162;SDS011;29282;45.656;11.302;2023-05-14T13:22:14;5.93;;;2.25;;
33162;SDS011;29282;45.656;11.302;2023-05-14T13:24:41;5.47;;;2.50;;
33162;SDS011;29282;45.656;11.302;2023-05-14T13:27:06;6.57;;;2.30;;
33162;SDS011;29282;45.656;11.302;2023-05-14T13:29:32;7.88;;;2.10;;
33162;SDS011;29282;45.656;11.302;2023-05-14T13:31:57;5.43;;;2.22;;
33162;SDS011;29282;45.656;11.302;2023-05-14T13:34:23;9.07;;;2.72;;
33162;SDS011;29282;45.656;11.302;2023-05-14T13:36:48;5.85;;;2.28;;
33162;SDS011;29282;45.656;11.302;2023-05-14T13:39:14;6.28;;;2.53;;
33162;SDS011;29282;45.656;11.302;2023-05-14T13:41:40;3.97;;;2.10;;
33162;SDS011;29282;45.656;11.302;2023-05-14T13:44:05;6.22;;;2.13;;
33162;SDS011;29282;45.656;11.302;2023-05-14T13:46:31;3.67;;;1.70;;
33162;SDS011;29282;45.656;11.302;2023-05-14T13:48:56;8.63;;;2.40;;
33162;SDS011;29282;45.656;11.302;2023-05-14T13:51:22;3.42;;;1.90;;
33162;SDS011;29282;45.656;11.302;2023-05-14T13:53:48;10.75;;;2.22;;
33162;SDS011;29282;45.656;11.302;2023-05-14T13:56:13;5.38;;;2.10;;
33162;SDS011;29282;45.656;11.302;2023-05-14T13:58:39;5.38;;;2.35;;
33162;SDS011;29282;45.656;11.302;2023-05-14T14:01:05;7.43;;;2.20;;
33162;SDS011;29282;45.656;11.302;2023-05-14T14:03:30;7.93;;;2.60;;
33162;SDS011;29282;45.656;11.302;2023-05-14T14:05:56;3.92;;;1.88;;
33162;SDS011;29282;45.656;11.302;2023-05-14T14:08:21;5.53;;;2.00;;
33162;SDS011;29282;45.656;11.302;2023-05-14T14:10:51;5.50;;;2.05;;
33162;SDS011;29282;45.656;11.302;2023-05-14T14:13:18;6.63;;;2.35;;
33162;SDS011;29282;45.656;11.302;2023-05-14T14:15:45;4.82;;;1.80;;
33162;SDS011;29282;45.656;11.302;2023-05-14T14:18:10;5.28;;;2.35;;
33162;SDS011;29282;45.656;11.302;2023-05-14T14:20:36;4.38;;;2.17;;
33162;SDS011;29282;45.656;11.302;2023-05-14T14:23:02;6.45;;;2.13;;
33162;SDS011;29282;45.656;11.302;2023-05-14T14:25:28;5.40;;;2.20;;
33162;SDS011;29282;45.656;11.302;2023-05-14T14:27:53;2.90;;;2.00;;
33162;SDS011;29282;45.656;11.302;2023-05-14T14:30:19;4.18;;;2.05;;
33162;SDS011;29282;45.656;11.302;2023-05-14T14:32:45;4.13;;;2.17;;
33162;SDS011;29282;45.656;11.302;2023-05-14T14:35:12;3.58;;;2.15;;
33162;SDS011;29282;45.656;11.302;2023-05-14T14:37:38;3.70;;;2.17;;
33162;SDS011;29282;45.656;11.302;2023-05-14T14:40:05;5.53;;;1.98;;
33162;SDS011;29282;45.656;11.302;2023-05-14T14:42:33;4.07;;;1.95;;
33162;SDS011;29282;45.656;11.302;2023-05-14T14:44:58;4.20;;;1.90;;
33162;SDS011;29282;45.656;11.302;2023-05-14T14:47:24;4.80;;;2.30;;
33162;SDS011;29282;45.656;11.302;2023-05-14T14:49:49;7.15;;;2.35;;